sensor_id;sensor_type;location;lat;lon;timestamp;temperature;humidity
44833;DHT22;30569;51.252;9.830;2023-01-29T00:06:07;-3.30;99.90
44833;DHT22;30569;51.252;9.830;2023-01-29T00:08:37;-2.90;99.90
44833;DHT22;30569;51.252;9.830;2023-01-29T00:11:03;-3.20;99.90
44833;DHT22;30569;51.252;9.830;2023-01-29T00:13:29;-2.70;99.90
44833;DHT22;30569;51.252;9.830;2023-01-29T00:15:56;-2.70;99.90
44833;DHT22;30569;51.252;9.830;2023-01-29T00:18:23;-2.80;99.90
44833;DHT22;30569;51.252;9.830;2023-01-29T00:23:14;-3.00;99.90
44833;DHT22;30569;51.252;9.830;2023-01-29T00:25:41;-2.80;99.90
44833;DHT22;30569;51.252;9.830;2023-01-29T00:30:34;-2.50;99.90
44833;DHT22;30569;51.252;9.830;2023-01-29T00:32:59;-2.20;99.90
44833;DHT22;30569;51.252;9.830;2023-01-29T00:40:17;-2.90;99.90
44833;DHT22;30569;51.252;9.830;2023-01-29T00:42:45;-2.70;99.90
44833;DHT22;30569;51.252;9.830;2023-01-29T00:45:46;-2.40;99.90
44833;DHT22;30569;51.252;9.830;2023-01-29T00:48:12;-2.90;99.90
44833;DHT22;30569;51.252;9.830;2023-01-29T00:50:37;-3.70;99.90
44833;DHT22;30569;51.252;9.830;2023-01-29T00:53:03;-3.90;99.90
44833;DHT22;30569;51.252;9.830;2023-01-29T00:55:28;-3.90;99.90
44833;DHT22;30569;51.252;9.830;2023-01-29T00:57:54;-3.50;99.90
44833;DHT22;30569;51.252;9.830;2023-01-29T01:00:19;-2.80;99.90
44833;DHT22;30569;51.252;9.830;2023-01-29T01:07:56;-2.00;99.90
44833;DHT22;30569;51.252;9.830;2023-01-29T01:10:25;-2.10;99.90
44833;DHT22;30569;51.252;9.830;2023-01-29T01:12:56;-2.10;99.90
44833;DHT22;30569;51.252;9.830;2023-01-29T01:15:29;-1.80;99.90
44833;DHT22;30569;51.252;9.830;2023-01-29T01:17:58;-2.20;99.90
44833;DHT22;30569;51.252;9.830;2023-01-29T01:20:25;-2.90;99.90
44833;DHT22;30569;51.252;9.830;2023-01-29T01:22:52;-3.20;99.90
44833;DHT22;30569;51.252;9.830;2023-01-29T01:25:18;-3.20;99.90
44833;DHT22;30569;51.252;9.830;2023-01-29T01:27:44;-2.50;99.90
44833;DHT22;30569;51.252;9.830;2023-01-29T01:30:14;-2.50;99.90
44833;DHT22;30569;51.252;9.830;2023-01-29T01:32:40;-2.50;99.90
44833;DHT22;30569;51.252;9.830;2023-01-29T01:35:07;-2.40;99.90
44833;DHT22;30569;51.252;9.830;2023-01-29T01:37:33;-2.80;99.90
44833;DHT22;30569;51.252;9.830;2023-01-29T01:40:05;-2.90;99.90
44833;DHT22;30569;51.252;9.830;2023-01-29T01:42:38;-2.50;99.90
44833;DHT22;30569;51.252;9.830;2023-01-29T01:45:05;-2.20;99.90
44833;DHT22;30569;51.252;9.830;2023-01-29T01:47:51;-1.90;99.90
44833;DHT22;30569;51.252;9.830;2023-01-29T01:50:26;-2.50;99.90
44833;DHT22;30569;51.252;9.830;2023-01-29T01:53:01;-2.60;99.90
44833;DHT22;30569;51.252;9.830;2023-01-29T01:55:30;-2.00;99.90
44833;DHT22;30569;51.252;9.830;2023-01-29T01:58:03;-1.50;99.90
44833;DHT22;30569;51.252;9.830;2023-01-29T02:00:30;-1.00;99.90
44833;DHT22;30569;51.252;9.830;2023-01-29T02:05:41;-1.30;99.90
44833;DHT22;30569;51.252;9.830;2023-01-29T02:08:34;-1.50;99.90
44833;DHT22;30569;51.252;9.830;2023-01-29T02:18:43;-1.50;99.90
44833;DHT22;30569;51.252;9.830;2023-01-29T02:21:35;-1.50;99.90
44833;DHT22;30569;51.252;9.830;2023-01-29T02:24:39;-1.00;99.90
44833;DHT22;30569;51.252;9.830;2023-01-29T02:27:12;-1.60;99.90
44833;DHT22;30569;51.252;9.830;2023-01-29T02:35:17;-0.80;99.90
44833;DHT22;30569;51.252;9.830;2023-01-29T02:48:23;-0.50;99.90
44833;DHT22;30569;51.252;9.830;2023-01-29T02:50:55;-1.20;99.90
44833;DHT22;30569;51.252;9.830;2023-01-29T02:53:36;-2.20;99.90
44833;DHT22;30569;51.252;9.830;2023-01-29T02:56:12;-2.70;99.90
44833;DHT22;30569;51.252;9.830;2023-01-29T02:58:42;-2.80;99.90
44833;DHT22;30569;51.252;9.830;2023-01-29T03:01:14;-2.70;99.90
44833;DHT22;30569;51.252;9.830;2023-01-29T03:03:44;-2.60;99.90
44833;DHT22;30569;51.252;9.830;2023-01-29T03:06:40;-2.50;99.90
44833;DHT22;30569;51.252;9.830;2023-01-29T03:09:15;-1.30;99.90
44833;DHT22;30569;51.252;9.830;2023-01-29T03:11:48;-2.60;99.90
44833;DHT22;30569;51.252;9.830;2023-01-29T03:14:34;-2.50;99.90
44833;DHT22;30569;51.252;9.830;2023-01-29T03:17:23;-2.40;99.90
44833;DHT22;30569;51.252;9.830;2023-01-29T03:22:17;-2.30;99.90
44833;DHT22;30569;51.252;9.830;2023-01-29T03:24:52;-1.80;99.90
44833;DHT22;30569;51.252;9.830;2023-01-29T03:27:43;-1.10;99.90
44833;DHT22;30569;51.252;9.830;2023-01-29T03:30:31;-1.20;99.90
44833;DHT22;30569;51.252;9.830;2023-01-29T03:33:18;-1.20;99.90
44833;DHT22;30569;51.252;9.830;2023-01-29T03:36:05;-2.10;99.90
44833;DHT22;30569;51.252;9.830;2023-01-29T03:38:33;-2.30;99.90
44833;DHT22;30569;51.252;9.830;2023-01-29T03:41:02;-2.50;99.90
44833;DHT22;30569;51.252;9.830;2023-01-29T03:46:09;-2.80;99.90
44833;DHT22;30569;51.252;9.830;2023-01-29T03:48:48;-2.70;99.90
44833;DHT22;30569;51.252;9.830;2023-01-29T03:51:34;-2.70;99.90
44833;DHT22;30569;51.252;9.830;2023-01-29T03:55:09;-2.90;99.90
44833;DHT22;30569;51.252;9.830;2023-01-29T03:57:14;-2.60;99.90
44833;DHT22;30569;51.252;9.830;2023-01-29T04:02:32;-2.40;99.90
44833;DHT22;30569;51.252;9.830;2023-01-29T04:05:08;-2.50;99.90
44833;DHT22;30569;51.252;9.830;2023-01-29T04:07:37;-2.70;99.90
44833;DHT22;30569;51.252;9.830;2023-01-29T04:10:08;-2.70;99.90
44833;DHT22;30569;51.252;9.830;2023-01-29T04:12:54;-2.80;99.90
44833;DHT22;30569;51.252;9.830;2023-01-29T04:15:23;-2.70;99.90
44833;DHT22;30569;51.252;9.830;2023-01-29T04:17:51;-2.70;99.90
44833;DHT22;30569;51.252;9.830;2023-01-29T04:20:18;-2.80;99.90
44833;DHT22;30569;51.252;9.830;2023-01-29T04:22:49;-2.80;99.90
44833;DHT22;30569;51.252;9.830;2023-01-29T04:25:19;-2.80;99.90
44833;DHT22;30569;51.252;9.830;2023-01-29T04:30:55;-2.70;99.90
44833;DHT22;30569;51.252;9.830;2023-01-29T04:33:34;-2.80;99.90
44833;DHT22;30569;51.252;9.830;2023-01-29T04:46:29;-2.70;99.90
44833;DHT22;30569;51.252;9.830;2023-01-29T04:51:39;-2.80;99.90
44833;DHT22;30569;51.252;9.830;2023-01-29T04:57:15;-2.80;99.90
44833;DHT22;30569;51.252;9.830;2023-01-29T04:59:47;-2.40;99.90
44833;DHT22;30569;51.252;9.830;2023-01-29T05:04:40;-1.50;99.90
44833;DHT22;30569;51.252;9.830;2023-01-29T05:07:11;-1.30;99.90
44833;DHT22;30569;51.252;9.830;2023-01-29T05:09:38;-1.40;99.90
44833;DHT22;30569;51.252;9.830;2023-01-29T05:12:08;-1.10;99.90
44833;DHT22;30569;51.252;9.830;2023-01-29T05:14:36;-0.80;99.90
44833;DHT22;30569;51.252;9.830;2023-01-29T05:17:09;-1.10;99.90
44833;DHT22;30569;51.252;9.830;2023-01-29T05:22:05;-2.00;99.90
44833;DHT22;30569;51.252;9.830;2023-01-29T05:24:35;-2.20;99.90
44833;DHT22;30569;51.252;9.830;2023-01-29T05:29:46;-2.10;99.90
44833;DHT22;30569;51.252;9.830;2023-01-29T05:32:13;-1.50;99.90
44833;DHT22;30569;51.252;9.830;2023-01-29T05:34:38;-1.80;99.90
44833;DHT22;30569;51.252;9.830;2023-01-29T05:41:57;-2.30;99.90
44833;DHT22;30569;51.252;9.830;2023-01-29T05:46:49;-1.70;99.90
44833;DHT22;30569;51.252;9.830;2023-01-29T05:49:16;-1.50;99.90
44833;DHT22;30569;51.252;9.830;2023-01-29T05:51:42;-1.30;99.90
44833;DHT22;30569;51.252;9.830;2023-01-29T05:54:10;-0.80;99.90
44833;DHT22;30569;51.252;9.830;2023-01-29T05:56:36;-0.70;99.90
44833;DHT22;30569;51.252;9.830;2023-01-29T05:59:02;-0.70;99.90
44833;DHT22;30569;51.252;9.830;2023-01-29T06:06:20;-1.30;99.90
44833;DHT22;30569;51.252;9.830;2023-01-29T06:11:12;-1.80;99.90
44833;DHT22;30569;51.252;9.830;2023-01-29T06:13:38;-2.00;99.90
44833;DHT22;30569;51.252;9.830;2023-01-29T06:16:05;-2.40;99.90
44833;DHT22;30569;51.252;9.830;2023-01-29T06:18:31;-2.00;99.90
44833;DHT22;30569;51.252;9.830;2023-01-29T06:21:01;-1.70;99.90
44833;DHT22;30569;51.252;9.830;2023-01-29T06:26:02;-2.40;99.90
44833;DHT22;30569;51.252;9.830;2023-01-29T06:28:28;-2.70;99.90
44833;DHT22;30569;51.252;9.830;2023-01-29T06:31:00;-2.90;99.90
44833;DHT22;30569;51.252;9.830;2023-01-29T06:33:26;-3.00;99.90
44833;DHT22;30569;51.252;9.830;2023-01-29T06:35:56;-3.00;99.90
44833;DHT22;30569;51.252;9.830;2023-01-29T06:38:22;-3.10;99.90
44833;DHT22;30569;51.252;9.830;2023-01-29T06:40:48;-3.10;99.90
44833;DHT22;30569;51.252;9.830;2023-01-29T06:45:54;-3.00;99.90
44833;DHT22;30569;51.252;9.830;2023-01-29T06:53:14;-2.80;99.90
44833;DHT22;30569;51.252;9.830;2023-01-29T06:58:10;-3.00;99.90
44833;DHT22;30569;51.252;9.830;2023-01-29T07:00:37;-3.10;99.90
44833;DHT22;30569;51.252;9.830;2023-01-29T07:03:03;-3.00;99.90
44833;DHT22;30569;51.252;9.830;2023-01-29T07:05:29;-3.00;99.90
44833;DHT22;30569;51.252;9.830;2023-01-29T07:10:22;-3.00;99.90
44833;DHT22;30569;51.252;9.830;2023-01-29T07:15:13;-3.00;99.90
44833;DHT22;30569;51.252;9.830;2023-01-29T07:22:36;-2.90;99.90
44833;DHT22;30569;51.252;9.830;2023-01-29T07:25:01;-2.90;99.90
44833;DHT22;30569;51.252;9.830;2023-01-29T07:27:27;-2.90;99.90
44833;DHT22;30569;51.252;9.830;2023-01-29T07:29:53;-2.90;99.90
44833;DHT22;30569;51.252;9.830;2023-01-29T07:32:18;-2.80;99.90
44833;DHT22;30569;51.252;9.830;2023-01-29T07:34:44;-3.00;99.90
44833;DHT22;30569;51.252;9.830;2023-01-29T07:37:10;-3.00;99.90
44833;DHT22;30569;51.252;9.830;2023-01-29T07:42:01;-2.80;99.90
44833;DHT22;30569;51.252;9.830;2023-01-29T07:51:45;-2.80;99.90
44833;DHT22;30569;51.252;9.830;2023-01-29T07:56:36;-2.80;99.90
44833;DHT22;30569;51.252;9.830;2023-01-29T07:59:02;-2.90;99.90
44833;DHT22;30569;51.252;9.830;2023-01-29T08:03:54;-2.90;99.90
44833;DHT22;30569;51.252;9.830;2023-01-29T08:06:19;-2.80;99.90
44833;DHT22;30569;51.252;9.830;2023-01-29T08:08:45;-3.00;99.90
44833;DHT22;30569;51.252;9.830;2023-01-29T08:13:36;-2.20;99.90
44833;DHT22;30569;51.252;9.830;2023-01-29T08:16:03;-2.70;99.90
44833;DHT22;30569;51.252;9.830;2023-01-29T08:18:29;-2.70;99.90
44833;DHT22;30569;51.252;9.830;2023-01-29T08:21:02;-2.70;99.90
44833;DHT22;30569;51.252;9.830;2023-01-29T08:23:28;-2.70;99.90
44833;DHT22;30569;51.252;9.830;2023-01-29T08:30:45;-2.40;99.90
44833;DHT22;30569;51.252;9.830;2023-01-29T08:38:04;-2.90;99.90
44833;DHT22;30569;51.252;9.830;2023-01-29T08:40:31;-2.70;99.90
44833;DHT22;30569;51.252;9.830;2023-01-29T08:43:05;-2.70;99.90
44833;DHT22;30569;51.252;9.830;2023-01-29T08:45:33;-2.70;99.90
44833;DHT22;30569;51.252;9.830;2023-01-29T08:47:59;-2.70;99.90
44833;DHT22;30569;51.252;9.830;2023-01-29T08:55:17;-2.50;99.90
44833;DHT22;30569;51.252;9.830;2023-01-29T08:57:42;-2.50;99.90
44833;DHT22;30569;51.252;9.830;2023-01-29T09:00:08;-2.50;99.90
44833;DHT22;30569;51.252;9.830;2023-01-29T09:07:28;-2.40;99.90
44833;DHT22;30569;51.252;9.830;2023-01-29T09:09:54;-2.20;99.90
44833;DHT22;30569;51.252;9.830;2023-01-29T09:12:19;-2.40;99.90
44833;DHT22;30569;51.252;9.830;2023-01-29T09:14:45;-2.30;99.90
44833;DHT22;30569;51.252;9.830;2023-01-29T09:29:20;-1.80;99.90
44833;DHT22;30569;51.252;9.830;2023-01-29T09:34:12;-1.90;99.90
44833;DHT22;30569;51.252;9.830;2023-01-29T09:36:38;-1.80;99.90
44833;DHT22;30569;51.252;9.830;2023-01-29T09:42:36;-2.10;99.90
44833;DHT22;30569;51.252;9.830;2023-01-29T09:47:34;-2.10;99.90
44833;DHT22;30569;51.252;9.830;2023-01-29T09:50:05;-1.80;99.90
44833;DHT22;30569;51.252;9.830;2023-01-29T09:52:35;-1.60;99.90
44833;DHT22;30569;51.252;9.830;2023-01-29T09:55:14;-1.60;99.90
44833;DHT22;30569;51.252;9.830;2023-01-29T09:57:59;-1.70;99.90
44833;DHT22;30569;51.252;9.830;2023-01-29T10:00:43;-1.70;99.90
44833;DHT22;30569;51.252;9.830;2023-01-29T10:03:40;-1.60;99.90
44833;DHT22;30569;51.252;9.830;2023-01-29T10:14:18;-0.50;99.90
44833;DHT22;30569;51.252;9.830;2023-01-29T10:24:59;-0.40;99.90
44833;DHT22;30569;51.252;9.830;2023-01-29T10:27:32;-0.50;99.90
44833;DHT22;30569;51.252;9.830;2023-01-29T10:30:00;-0.90;99.90
44833;DHT22;30569;51.252;9.830;2023-01-29T10:32:27;-1.40;99.90
44833;DHT22;30569;51.252;9.830;2023-01-29T10:35:02;-1.40;99.90
44833;DHT22;30569;51.252;9.830;2023-01-29T10:37:47;-1.40;99.90
44833;DHT22;30569;51.252;9.830;2023-01-29T10:40:22;-1.50;99.90
44833;DHT22;30569;51.252;9.830;2023-01-29T10:43:07;-1.50;99.90
44833;DHT22;30569;51.252;9.830;2023-01-29T10:45:41;-1.20;99.90
44833;DHT22;30569;51.252;9.830;2023-01-29T10:51:08;-0.70;99.90
44833;DHT22;30569;51.252;9.830;2023-01-29T10:53:56;-0.10;99.90
44833;DHT22;30569;51.252;9.830;2023-01-29T10:56:46;-0.50;99.90
44833;DHT22;30569;51.252;9.830;2023-01-29T10:59:43;-0.60;99.90
44833;DHT22;30569;51.252;9.830;2023-01-29T11:02:17;-0.70;99.90
44833;DHT22;30569;51.252;9.830;2023-01-29T11:04:43;-0.50;99.90
44833;DHT22;30569;51.252;9.830;2023-01-29T11:07:10;-0.60;99.90
44833;DHT22;30569;51.252;9.830;2023-01-29T11:09:51;-1.00;99.90
44833;DHT22;30569;51.252;9.830;2023-01-29T11:12:21;-1.30;99.90
44833;DHT22;30569;51.252;9.830;2023-01-29T11:15:18;-1.50;99.90
44833;DHT22;30569;51.252;9.830;2023-01-29T11:18:10;-1.60;99.90
44833;DHT22;30569;51.252;9.830;2023-01-29T11:20:44;-1.60;99.90
44833;DHT22;30569;51.252;9.830;2023-01-29T11:23:31;-1.50;99.90
44833;DHT22;30569;51.252;9.830;2023-01-29T11:25:58;-1.50;99.90
44833;DHT22;30569;51.252;9.830;2023-01-29T11:28:43;-1.40;99.90
44833;DHT22;30569;51.252;9.830;2023-01-29T11:33:45;-1.20;99.90
44833;DHT22;30569;51.252;9.830;2023-01-29T11:36:30;-0.70;99.90
44833;DHT22;30569;51.252;9.830;2023-01-29T11:39:09;-0.50;99.90
44833;DHT22;30569;51.252;9.830;2023-01-29T11:42:03;-0.40;99.90
44833;DHT22;30569;51.252;9.830;2023-01-29T11:44:34;-0.70;99.90
44833;DHT22;30569;51.252;9.830;2023-01-29T11:49:52;-1.10;99.90
44833;DHT22;30569;51.252;9.830;2023-01-29T11:52:22;-0.90;99.90
44833;DHT22;30569;51.252;9.830;2023-01-29T11:54:57;-1.00;99.90
44833;DHT22;30569;51.252;9.830;2023-01-29T11:57:36;-1.00;99.90
44833;DHT22;30569;51.252;9.830;2023-01-29T12:02:45;-1.00;99.90
44833;DHT22;30569;51.252;9.830;2023-01-29T12:05:23;-0.90;99.90
44833;DHT22;30569;51.252;9.830;2023-01-29T12:07:51;-0.80;99.90
44833;DHT22;30569;51.252;9.830;2023-01-29T12:10:34;-0.70;99.90
44833;DHT22;30569;51.252;9.830;2023-01-29T12:13:26;-0.90;99.90
44833;DHT22;30569;51.252;9.830;2023-01-29T12:16:13;-0.70;99.90
44833;DHT22;30569;51.252;9.830;2023-01-29T12:18:43;-0.60;99.90
44833;DHT22;30569;51.252;9.830;2023-01-29T12:21:19;-0.50;99.90
44833;DHT22;30569;51.252;9.830;2023-01-29T12:23:58;-0.60;99.90
44833;DHT22;30569;51.252;9.830;2023-01-29T12:26:37;-0.60;99.90
44833;DHT22;30569;51.252;9.830;2023-01-29T12:34:55;-0.50;99.90
44833;DHT22;30569;51.252;9.830;2023-01-29T12:40:13;-0.40;99.90
44833;DHT22;30569;51.252;9.830;2023-01-29T12:42:42;-0.30;99.90
44833;DHT22;30569;51.252;9.830;2023-01-29T12:45:13;-0.40;99.90
44833;DHT22;30569;51.252;9.830;2023-01-29T12:47:44;-0.30;99.90
44833;DHT22;30569;51.252;9.830;2023-01-29T12:50:27;-0.20;99.90
44833;DHT22;30569;51.252;9.830;2023-01-29T12:55:46;-0.40;99.90
44833;DHT22;30569;51.252;9.830;2023-01-29T13:00:48;-0.50;99.90
44833;DHT22;30569;51.252;9.830;2023-01-29T13:03:20;-0.50;99.90
44833;DHT22;30569;51.252;9.830;2023-01-29T13:05:53;-0.50;99.90
44833;DHT22;30569;51.252;9.830;2023-01-29T13:11:01;-0.50;99.90
44833;DHT22;30569;51.252;9.830;2023-01-29T13:13:44;-0.70;99.90
44833;DHT22;30569;51.252;9.830;2023-01-29T13:16:18;-0.50;99.90
44833;DHT22;30569;51.252;9.830;2023-01-29T13:19:18;-0.40;99.90
44833;DHT22;30569;51.252;9.830;2023-01-29T13:21:46;-0.20;99.90
44833;DHT22;30569;51.252;9.830;2023-01-29T13:24:15;0.00;99.90
44833;DHT22;30569;51.252;9.830;2023-01-29T13:26:46;0.10;99.90
44833;DHT22;30569;51.252;9.830;2023-01-29T13:29:21;0.30;99.90
44833;DHT22;30569;51.252;9.830;2023-01-29T13:31:49;0.00;99.90
44833;DHT22;30569;51.252;9.830;2023-01-29T13:34:24;0.00;99.90
44833;DHT22;30569;51.252;9.830;2023-01-29T13:36:56;0.10;99.90
44833;DHT22;30569;51.252;9.830;2023-01-29T13:39:26;0.00;99.90
44833;DHT22;30569;51.252;9.830;2023-01-29T13:41:54;0.40;99.90
44833;DHT22;30569;51.252;9.830;2023-01-29T13:44:24;0.20;99.90
44833;DHT22;30569;51.252;9.830;2023-01-29T13:47:02;0.20;99.90
44833;DHT22;30569;51.252;9.830;2023-01-29T13:49:42;0.40;99.90
44833;DHT22;30569;51.252;9.830;2023-01-29T14:10:35;0.60;99.90
44833;DHT22;30569;51.252;9.830;2023-01-29T14:18:35;0.20;99.90
44833;DHT22;30569;51.252;9.830;2023-01-29T14:26:29;0.30;99.90
44833;DHT22;30569;51.252;9.830;2023-01-29T14:31:54;0.40;99.90
44833;DHT22;30569;51.252;9.830;2023-01-29T14:34:31;0.50;99.90
44833;DHT22;30569;51.252;9.830;2023-01-29T14:39:49;0.80;99.90
44833;DHT22;30569;51.252;9.830;2023-01-29T14:42:32;0.70;99.90
44833;DHT22;30569;51.252;9.830;2023-01-29T14:58:46;0.60;99.90
44833;DHT22;30569;51.252;9.830;2023-01-29T15:01:36;0.10;99.90
44833;DHT22;30569;51.252;9.830;2023-01-29T15:04:16;0.40;99.90
44833;DHT22;30569;51.252;9.830;2023-01-29T15:06:47;0.60;99.90
44833;DHT22;30569;51.252;9.830;2023-01-29T15:15:37;0.00;99.90
44833;DHT22;30569;51.252;9.830;2023-01-29T15:20:38;0.50;99.90
44833;DHT22;30569;51.252;9.830;2023-01-29T15:23:27;0.80;99.90
44833;DHT22;30569;51.252;9.830;2023-01-29T15:25:58;0.80;99.90
44833;DHT22;30569;51.252;9.830;2023-01-29T15:28:29;1.00;99.90
44833;DHT22;30569;51.252;9.830;2023-01-29T15:30:56;0.50;99.90
44833;DHT22;30569;51.252;9.830;2023-01-29T15:33:24;0.30;99.90
44833;DHT22;30569;51.252;9.830;2023-01-29T15:35:58;0.50;99.90
44833;DHT22;30569;51.252;9.830;2023-01-29T15:38:24;-0.20;99.90
44833;DHT22;30569;51.252;9.830;2023-01-29T15:40:56;-0.30;99.90
44833;DHT22;30569;51.252;9.830;2023-01-29T15:44:09;-0.40;99.90
44833;DHT22;30569;51.252;9.830;2023-01-29T15:46:27;-0.40;99.90
44833;DHT22;30569;51.252;9.830;2023-01-29T15:48:55;-0.60;99.90
44833;DHT22;30569;51.252;9.830;2023-01-29T15:51:24;-0.50;99.90
44833;DHT22;30569;51.252;9.830;2023-01-29T15:53:55;-0.40;99.90
44833;DHT22;30569;51.252;9.830;2023-01-29T15:56:49;-0.50;99.90
44833;DHT22;30569;51.252;9.830;2023-01-29T15:59:18;-0.60;99.90
44833;DHT22;30569;51.252;9.830;2023-01-29T16:01:44;-0.70;99.90
44833;DHT22;30569;51.252;9.830;2023-01-29T16:04:21;-0.70;99.90
44833;DHT22;30569;51.252;9.830;2023-01-29T16:06:49;-0.50;99.90
44833;DHT22;30569;51.252;9.830;2023-01-29T16:09:21;-0.60;99.90
44833;DHT22;30569;51.252;9.830;2023-01-29T16:11:52;-0.60;99.90
44833;DHT22;30569;51.252;9.830;2023-01-29T16:14:21;-0.60;99.90
44833;DHT22;30569;51.252;9.830;2023-01-29T16:19:28;-0.60;99.90
44833;DHT22;30569;51.252;9.830;2023-01-29T16:21:58;-0.60;99.90
44833;DHT22;30569;51.252;9.830;2023-01-29T16:24:24;-0.80;99.90
44833;DHT22;30569;51.252;9.830;2023-01-29T16:26:56;-0.80;99.90
44833;DHT22;30569;51.252;9.830;2023-01-29T16:29:29;-0.90;99.90
44833;DHT22;30569;51.252;9.830;2023-01-29T16:31:58;-0.90;99.90
44833;DHT22;30569;51.252;9.830;2023-01-29T16:36:54;-1.00;99.90
44833;DHT22;30569;51.252;9.830;2023-01-29T16:39:22;-1.00;99.90
44833;DHT22;30569;51.252;9.830;2023-01-29T16:44:31;-1.00;99.90
44833;DHT22;30569;51.252;9.830;2023-01-29T16:47:09;-1.10;99.90
44833;DHT22;30569;51.252;9.830;2023-01-29T16:52:18;-1.10;99.90
44833;DHT22;30569;51.252;9.830;2023-01-29T16:57:14;-1.20;99.90
44833;DHT22;30569;51.252;9.830;2023-01-29T16:59:41;-1.20;99.90
44833;DHT22;30569;51.252;9.830;2023-01-29T17:02:21;-1.20;99.90
44833;DHT22;30569;51.252;9.830;2023-01-29T17:04:50;-1.30;99.90
44833;DHT22;30569;51.252;9.830;2023-01-29T17:07:17;-1.30;99.90
44833;DHT22;30569;51.252;9.830;2023-01-29T17:09:48;-1.30;99.90
44833;DHT22;30569;51.252;9.830;2023-01-29T17:12:18;-1.30;99.90
44833;DHT22;30569;51.252;9.830;2023-01-29T17:14:54;-1.20;99.90
44833;DHT22;30569;51.252;9.830;2023-01-29T17:24:42;-1.30;99.90
44833;DHT22;30569;51.252;9.830;2023-01-29T17:27:18;-1.30;99.90
44833;DHT22;30569;51.252;9.830;2023-01-29T17:29:44;-1.30;99.90
44833;DHT22;30569;51.252;9.830;2023-01-29T17:41:56;-1.20;99.90
44833;DHT22;30569;51.252;9.830;2023-01-29T17:46:50;-1.30;99.90
44833;DHT22;30569;51.252;9.830;2023-01-29T17:49:24;-1.30;99.90
44833;DHT22;30569;51.252;9.830;2023-01-29T17:51:51;-1.30;99.90
44833;DHT22;30569;51.252;9.830;2023-01-29T17:59:21;-1.20;99.90
44833;DHT22;30569;51.252;9.830;2023-01-29T18:01:47;-1.20;99.90
44833;DHT22;30569;51.252;9.830;2023-01-29T18:04:14;-0.80;99.90
44833;DHT22;30569;51.252;9.830;2023-01-29T18:06:41;-1.30;99.90
44833;DHT22;30569;51.252;9.830;2023-01-29T18:14:00;-1.40;99.90
44833;DHT22;30569;51.252;9.830;2023-01-29T18:26:11;-1.40;99.90
44833;DHT22;30569;51.252;9.830;2023-01-29T18:31:04;-1.30;99.90
44833;DHT22;30569;51.252;9.830;2023-01-29T18:40:51;-1.50;99.90
44833;DHT22;30569;51.252;9.830;2023-01-29T18:50:35;-1.40;99.90
44833;DHT22;30569;51.252;9.830;2023-01-29T18:53:00;-1.40;99.90
44833;DHT22;30569;51.252;9.830;2023-01-29T18:57:55;-1.40;99.90
44833;DHT22;30569;51.252;9.830;2023-01-29T19:00:21;-1.40;99.90
44833;DHT22;30569;51.252;9.830;2023-01-29T19:02:47;-1.40;99.90
44833;DHT22;30569;51.252;9.830;2023-01-29T19:07:39;-1.30;99.90
44833;DHT22;30569;51.252;9.830;2023-01-29T19:10:06;-1.30;99.90
44833;DHT22;30569;51.252;9.830;2023-01-29T19:19:51;-1.40;99.90
44833;DHT22;30569;51.252;9.830;2023-01-29T19:22:17;-1.10;99.90
44833;DHT22;30569;51.252;9.830;2023-01-29T19:24:43;-1.30;99.90
44833;DHT22;30569;51.252;9.830;2023-01-29T19:29:36;-1.40;99.90
44833;DHT22;30569;51.252;9.830;2023-01-29T19:51:31;-1.40;99.90
44833;DHT22;30569;51.252;9.830;2023-01-29T19:58:48;-1.50;99.90
44833;DHT22;30569;51.252;9.830;2023-01-29T20:01:19;-1.50;99.90
44833;DHT22;30569;51.252;9.830;2023-01-29T20:03:46;-1.50;99.90
44833;DHT22;30569;51.252;9.830;2023-01-29T20:06:14;-1.60;99.90
44833;DHT22;30569;51.252;9.830;2023-01-29T20:08:40;-1.50;99.90
44833;DHT22;30569;51.252;9.830;2023-01-29T20:16:03;-1.40;99.90
44833;DHT22;30569;51.252;9.830;2023-01-29T20:18:30;-1.40;99.90
44833;DHT22;30569;51.252;9.830;2023-01-29T20:20:56;-1.50;99.90
44833;DHT22;30569;51.252;9.830;2023-01-29T20:25:48;-1.60;99.90
44833;DHT22;30569;51.252;9.830;2023-01-29T20:28:14;-1.50;99.90
44833;DHT22;30569;51.252;9.830;2023-01-29T20:30:42;-1.50;99.90
44833;DHT22;30569;51.252;9.830;2023-01-29T20:33:11;-1.60;99.90
44833;DHT22;30569;51.252;9.830;2023-01-29T20:35:37;-1.50;99.90
44833;DHT22;30569;51.252;9.830;2023-01-29T20:42:55;-1.40;99.90
44833;DHT22;30569;51.252;9.830;2023-01-29T20:47:47;-1.40;99.90
44833;DHT22;30569;51.252;9.830;2023-01-29T20:50:15;-1.40;99.90
44833;DHT22;30569;51.252;9.830;2023-01-29T20:55:10;-1.40;99.90
44833;DHT22;30569;51.252;9.830;2023-01-29T20:57:37;-1.40;99.90
44833;DHT22;30569;51.252;9.830;2023-01-29T21:00:04;-1.40;99.90
44833;DHT22;30569;51.252;9.830;2023-01-29T21:07:26;-1.30;99.90
44833;DHT22;30569;51.252;9.830;2023-01-29T21:39:05;-1.70;99.90
44833;DHT22;30569;51.252;9.830;2023-01-29T21:41:44;-1.30;99.90
44833;DHT22;30569;51.252;9.830;2023-01-29T21:49:21;-1.30;99.90
44833;DHT22;30569;51.252;9.830;2023-01-29T22:01:33;-1.20;99.90
44833;DHT22;30569;51.252;9.830;2023-01-29T22:03:59;-1.10;99.90
44833;DHT22;30569;51.252;9.830;2023-01-29T22:06:24;-1.10;99.90
44833;DHT22;30569;51.252;9.830;2023-01-29T22:08:50;-1.00;99.90
44833;DHT22;30569;51.252;9.830;2023-01-29T22:33:11;-1.00;99.90
44833;DHT22;30569;51.252;9.830;2023-01-29T22:42:56;-1.10;99.90
44833;DHT22;30569;51.252;9.830;2023-01-29T22:50:13;-0.90;99.90
44833;DHT22;30569;51.252;9.830;2023-01-29T22:55:09;-1.00;99.90
44833;DHT22;30569;51.252;9.830;2023-01-29T23:00:05;-1.00;99.90
44833;DHT22;30569;51.252;9.830;2023-01-29T23:02:31;-0.90;99.90
44833;DHT22;30569;51.252;9.830;2023-01-29T23:12:15;-0.90;99.90
44833;DHT22;30569;51.252;9.830;2023-01-29T23:19:33;-0.90;99.90
44833;DHT22;30569;51.252;9.830;2023-01-29T23:29:35;-1.10;99.90
44833;DHT22;30569;51.252;9.830;2023-01-29T23:32:00;-1.20;99.90
44833;DHT22;30569;51.252;9.830;2023-01-29T23:58:52;-1.30;99.90
